Great Falls International Airport


Codes: KGTF/GTF
Name: Great Falls International Airport
City: Great Falls
Country: United States
Elevation: 3680 ft.
Wikipedia:

Photos at Great Falls International Airport


   Photos courtesy of SpottingLog. You can add your own sightings and photos by signing up for a free trial today.



No photos found.

Weather at Great Falls International Airport


Time (UTC)DescriptionTempratureWindCloud coverageVisibilityPressureHumidity
25-Jun-2024 15:00Clear Sky15°C4 mph, NW0%10000m1015hPa46%
25-Jun-2024 18:00Clear Sky17°C11 mph, N1%10000m1015hPa43%
25-Jun-2024 21:00Few Clouds21°C9 mph, N22%10000m1015hPa38%
26-Jun-2024 00:00Few Clouds21°C18 mph, NE15%10000m1016hPa41%
26-Jun-2024 03:00Clear Sky17°C9 mph, NE0%10000m1017hPa51%
26-Jun-2024 06:00Clear Sky12°C9 mph, NE0%10000m1019hPa64%
26-Jun-2024 09:00Clear Sky11°C4 mph, SE0%10000m1018hPa70%
26-Jun-2024 12:00Clear Sky9°C4 mph, S0%10000m1016hPa81%
26-Jun-2024 15:00Clear Sky17°C4 mph, S0%10000m1013hPa53%
26-Jun-2024 18:00Clear Sky25°C7 mph, SE2%10000m1008hPa33%
26-Jun-2024 21:00Overcast Clouds30°C2 mph, SW85%10000m1004hPa25%
27-Jun-2024 00:00Overcast Clouds29°C16 mph, S93%10000m1000hPa27%
27-Jun-2024 03:00Light Rain18°C16 mph, W89%2523m1006hPa73%
27-Jun-2024 06:00Light Rain15°C7 mph, S84%10000m1006hPa86%
27-Jun-2024 09:00Broken Clouds15°C4 mph, SW55%10000m1004hPa81%
27-Jun-2024 12:00Broken Clouds14°C2 mph, NW59%10000m1003hPa83%
27-Jun-2024 15:00Light Rain19°C7 mph, W96%10000m1003hPa62%
27-Jun-2024 18:00Light Rain14°C9 mph, SE98%10000m1004hPa82%
27-Jun-2024 21:00Light Rain22°C25 mph, W84%10000m1001hPa24%
28-Jun-2024 00:00Overcast Clouds19°C22 mph, W92%10000m1002hPa31%
28-Jun-2024 03:00Clear Sky15°C13 mph, W3%10000m1005hPa41%
28-Jun-2024 06:00Scattered Clouds14°C16 mph, W48%10000m1006hPa48%
28-Jun-2024 09:00Light Rain13°C11 mph, W100%10000m1007hPa55%
28-Jun-2024 12:00Light Rain10°C18 mph, NW100%10000m1011hPa83%
28-Jun-2024 15:00Light Rain10°C18 mph, NW100%10000m1015hPa88%
28-Jun-2024 18:00Light Rain11°C13 mph, NW100%10000m1016hPa75%
28-Jun-2024 21:00Light Rain17°C9 mph, N86%10000m1016hPa49%
29-Jun-2024 00:00Light Rain15°C4 mph, SE94%10000m1016hPa58%
29-Jun-2024 03:00Broken Clouds12°C7 mph, SE51%10000m1017hPa71%
29-Jun-2024 06:00Scattered Clouds9°C7 mph, SE25%10000m1018hPa82%
29-Jun-2024 09:00Clear Sky8°C2 mph, SE2%10000m1017hPa82%
29-Jun-2024 12:00Scattered Clouds7°C2 mph, SE36%10000m1018hPa78%
29-Jun-2024 15:00Overcast Clouds13°C2 mph, S100%10000m1016hPa57%
29-Jun-2024 18:00Overcast Clouds18°C4 mph, SE100%10000m1014hPa43%
29-Jun-2024 21:00Overcast Clouds21°C7 mph, NE100%10000m1012hPa37%
30-Jun-2024 00:00Overcast Clouds23°C9 mph, E100%10000m1009hPa36%
30-Jun-2024 03:00Overcast Clouds18°C7 mph, NE100%10000m1009hPa51%
30-Jun-2024 06:00Overcast Clouds16°C2 mph, SE100%10000m1010hPa58%
30-Jun-2024 09:00Overcast Clouds16°C2 mph, W100%10000m1009hPa60%
30-Jun-2024 12:00Light Rain14°C11 mph, S100%10000m1009hPa74%